Broadalbin, NY (12025)

8:41 AM EDT on November 01, 2014 (GMT -0400)
Sacandaga Lake | Change Station
CLOSE
Current Station
Personal Weather Station
Location: Broadalbin, NY
Elevation: 770 ft
Nearby Weather Stations

Elev 770 ft 43.12 °N, 74.15 °W | Updated 11 seconds ago

Overcast
Overcast
39.8 °F
Feels Like 35 °F
N
7.0
Wind Variable Wind from ENE
Gusts 10.0 mph

Today
High -- | Low -- °F
--% Chance of Precip.
Yesterday
High -- | Low -- °F
Precip. -- in
7:31 AM 5:48 PM
Waxing Gibbous, 66% visible
Pressure 29.98 in
Visibility 10.0 miles
Clouds Overcast 6000 ft
Windchill 35 °F
Dew Point 33 °F
Humidity 76%
Rainfall 0.00 in
Snow Depth Not available.
UV 0 out of 12
Pollen .10 out of 12
Air Quality Not available.
Flu Activity Not available.
METAR KSCH 011158Z 05008KT 10SM OVC060 04/M01 A2998

More Conditions Fewer Conditions

Pressure 29.98 in
Visibility 10.0 miles
Clouds Overcast 6000 ft
Windchill 35 °F
Dew Point 33 °F
Humidity 76%
Rainfall 0.00 in
Snow Depth Not available.
UV 0 out of 12
Pollen .10 out of 12
Air Quality Not available.
Flu Activity Not available.
METAR KSCH 011158Z 05008KT 10SM OVC060 04/M01 A2998

More Conditions Fewer Conditions

10-Day Weather Forecast

Almanac

Astronomy

Nov. 01, 2014 Rise Set
Actual Time
Civil Twilight
Nautical Twilight
Astronomical Twilight
Moon
Length of Visible Light
Length of Day
Tomorrow will be .
, % of the Moon is Illuminated

Today's Extremes

State Highs State Lows

Community

WunderPhotos

Upload Photos

1,766,915 photos uploaded!

WunderBlogs® & News

Nearby

Air Quality

  Air Quality AQ Index Pollutant
Not available.

Snow Depth

Station Depth Elevation

Earthquake Activity

City Distance Mag. Time & Date
Minimum magnitude displayed is 2.5.

Coastal Water Temperatures

Place Temperature

Nearby Weather Stations